Victor, MT (59875)

9:28 PM MDT on June 29, 2015 (GMT -0600)
MSU - Western Ag Research Center | | Change Station
CLOSE
Current Station
Personal Weather Station
Location: Corvallis, MT
Elevation: 3596 ft
Nearby Weather Stations

Elev 3596 ft 46.33 °N, 114.08 °W | Updated 17 seconds ago

Partly Cloudy
Partly Cloudy
68.6 °F
Feels Like 68.6 °F
N
2.0
Wind Variable Wind from SE
Gusts 5.0 mph

Today
High -- | Low -- °F
--% Chance of Precip.
Yesterday
High -- | Low -- °F
Precip. -- in
5:47 AM 9:33 PM
Waxing Gibbous, 95% visible
Pressure 29.86 in
Visibility 10.0 miles
Clouds Few 6500 ft
Scattered Clouds 11000 ft
Dew Point 64 °F
Humidity 85%
Rainfall in
Snow Depth Not available.
UV out of 12
Pollen 6.30 out of 12
Air Quality Not available.
Flu Activity Sporadic
METAR KMSO 300253Z 35011G20KT 10SM FEW065 SCT110 31/09 A2995 RMK AO2 SLP110 T03110094 55001

More Conditions Fewer Conditions

Pressure 29.86 in
Visibility 10.0 miles
Clouds Few 6500 ft
Scattered Clouds 11000 ft
Dew Point 64 °F
Humidity 85%
Rainfall in
Snow Depth Not available.
UV out of 12
Pollen 6.30 out of 12
Air Quality Not available.
Flu Activity Sporadic
METAR KMSO 300253Z 35011G20KT 10SM FEW065 SCT110 31/09 A2995 RMK AO2 SLP110 T03110094 55001

More Conditions Fewer Conditions

10-Day Weather Forecast

×

Almanac

Astronomy

Jun. 29, 2015 Rise Set
Actual Time
Civil Twilight
Nautical Twilight
Astronomical Twilight
Moon
Length of Visible Light
Length of Day
Tomorrow will be .
, % of the Moon is Illuminated

Today's Extremes

State Highs State Lows

Community

WunderPhotos

Upload Photos

1,833,951 photos uploaded!

WunderBlogs® & News

Nearby

Air Quality

  Air Quality AQ Index Pollutant
Not available.

Snow Depth

Station Depth Elevation

Earthquake Activity

City Distance Mag. Time & Date
Minimum magnitude displayed is 2.5.

Coastal Water Temperatures

Place Temperature

Stations

Nearby Weather Stations

Station Location Temp. Windchill Dew Point Humidity Wind Precip. Elev Updated Type